createdAt,value
2019-02-17T00:01:42.696Z,25.90
2019-02-17T00:04:11.813Z,25.85
2019-02-17T00:06:40.686Z,20.60
2019-02-17T00:09:12.209Z,34.13
2019-02-17T00:11:41.167Z,23.50
2019-02-17T00:14:10.293Z,22.75
2019-02-17T00:16:39.241Z,23.10
2019-02-17T00:19:08.041Z,23.75
2019-02-17T00:21:36.933Z,26.25
2019-02-17T00:24:06.059Z,22.27
2019-02-17T00:26:35.107Z,26.10
2019-02-17T00:29:04.585Z,25.23
2019-02-17T00:31:33.693Z,29.75
2019-02-17T00:34:02.493Z,21.12
2019-02-17T00:36:31.449Z,25.75
2019-02-17T00:39:00.584Z,22.80
2019-02-17T00:41:29.628Z,20.72
2019-02-17T00:43:58.420Z,24.95
2019-02-17T00:46:27.299Z,22.25
2019-02-17T00:48:56.162Z,25.40
2019-02-17T00:51:25.514Z,20.32
2019-02-17T00:53:55.021Z,21.60
2019-02-17T00:56:24.142Z,23.15
2019-02-17T00:58:53.175Z,22.55
2019-02-17T01:01:22.074Z,26.70
2019-02-17T01:03:51.116Z,19.02
2019-02-17T01:06:19.922Z,25.80
2019-02-17T01:08:48.974Z,21.77
2019-02-17T01:11:17.849Z,23.10
2019-02-17T01:13:46.952Z,21.17
2019-02-17T01:16:15.845Z,20.77
2019-02-17T01:18:44.877Z,23.50
2019-02-17T01:21:13.693Z,20.88
2019-02-17T01:23:42.769Z,23.32
2019-02-17T01:26:11.591Z,21.05
2019-02-17T01:28:40.430Z,26.93
2019-02-17T01:31:09.710Z,20.77
2019-02-17T01:33:38.578Z,21.68
2019-02-17T01:36:07.395Z,23.30
2019-02-17T01:38:36.186Z,21.65
2019-02-17T01:41:05.357Z,27.00
2019-02-17T01:43:34.476Z,22.93
2019-02-17T01:46:03.419Z,25.05
2019-02-17T01:48:32.262Z,30.95
2019-02-17T01:51:01.598Z,22.27
2019-02-17T01:53:30.531Z,23.95
2019-02-17T01:55:59.335Z,28.17
2019-02-17T01:58:28.133Z,22.60
2019-02-17T02:00:57.320Z,24.63
2019-02-17T02:03:26.216Z,23.65
2019-02-17T02:05:55.005Z,25.23
2019-02-17T02:08:23.894Z,27.42
2019-02-17T02:10:53.086Z,31.68
2019-02-17T02:13:22.146Z,23.62
2019-02-17T02:15:51.189Z,22.32
2019-02-17T02:18:20.148Z,22.90
2019-02-17T02:20:49.290Z,22.70
2019-02-17T02:23:18.525Z,25.23
2019-02-17T02:25:47.351Z,28.77
2019-02-17T02:28:16.415Z,25.32
2019-02-17T02:30:45.225Z,23.18
2019-02-17T02:33:14.101Z,23.32
2019-02-17T02:35:42.921Z,25.15
2019-02-17T02:38:13.543Z,27.50
2019-02-17T02:40:42.773Z,25.35
2019-02-17T02:43:11.839Z,27.22
2019-02-17T02:45:41.160Z,25.80
2019-02-17T02:48:10.029Z,25.60
2019-02-17T02:50:39.345Z,20.23
2019-02-17T02:53:08.430Z,28.57
2019-02-17T02:55:37.291Z,22.67
2019-02-17T02:58:06.246Z,22.77
2019-02-17T03:00:35.137Z,30.75
2019-02-17T03:03:03.932Z,26.87
2019-02-17T03:05:32.834Z,25.82
2019-02-17T03:08:01.771Z,27.50
2019-02-17T03:10:30.843Z,24.10
2019-02-17T03:12:59.625Z,25.65
2019-02-17T03:15:28.523Z,24.52
2019-02-17T03:17:57.361Z,26.45
2019-02-17T03:20:26.700Z,23.60
2019-02-17T03:22:55.501Z,24.47
2019-02-17T03:25:24.682Z,27.25
2019-02-17T03:27:53.470Z,23.42
2019-02-17T03:30:22.550Z,25.50
2019-02-17T03:32:51.574Z,22.30
2019-02-17T03:35:20.627Z,27.20
2019-02-17T03:37:49.431Z,28.73
2019-02-17T03:40:18.487Z,27.70
2019-02-17T03:42:47.606Z,27.15
2019-02-17T03:45:16.535Z,25.08
2019-02-17T03:47:45.653Z,25.15
2019-02-17T03:50:14.454Z,24.20
2019-02-17T03:52:43.235Z,24.43
2019-02-17T03:55:12.103Z,22.02
2019-02-17T03:57:41.482Z,25.08
2019-02-17T04:00:17.019Z,27.13
2019-02-17T04:02:41.250Z,25.15
2019-02-17T04:05:10.304Z,27.10
2019-02-17T04:07:39.173Z,32.48
2019-02-17T04:10:08.201Z,28.25
2019-02-17T04:12:36.990Z,25.17
2019-02-17T04:15:06.137Z,24.85
2019-02-17T04:17:35.176Z,26.82
2019-02-17T04:20:04.129Z,23.90
2019-02-17T04:22:33.309Z,23.87
2019-02-17T04:25:02.125Z,26.95
2019-02-17T04:27:31.166Z,29.05
2019-02-17T04:30:00.035Z,23.75
2019-02-17T04:32:28.856Z,30.92
2019-02-17T04:34:57.716Z,26.82
2019-02-17T04:37:26.538Z,24.87
2019-02-17T04:39:55.425Z,31.70
2019-02-17T04:42:24.729Z,25.17
2019-02-17T04:44:53.585Z,28.70
2019-02-17T04:47:22.702Z,22.25
2019-02-17T04:49:51.775Z,28.15
2019-02-17T04:52:21.172Z,28.40
2019-02-17T04:54:49.972Z,27.27
2019-02-17T04:57:18.911Z,27.32
2019-02-17T04:59:47.696Z,31.20
2019-02-17T05:02:16.583Z,23.50
2019-02-17T05:04:45.706Z,25.25
2019-02-17T05:07:14.581Z,29.75
2019-02-17T05:09:43.481Z,27.60
2019-02-17T05:12:12.537Z,26.85
2019-02-17T05:14:41.577Z,27.13
2019-02-17T05:17:10.949Z,30.27
2019-02-17T05:19:39.885Z,25.62
2019-02-17T05:22:08.749Z,28.87
2019-02-17T05:24:37.613Z,27.37
2019-02-17T05:27:06.709Z,29.45
2019-02-17T05:29:35.516Z,26.37
2019-02-17T05:32:04.322Z,26.95
2019-02-17T05:34:33.697Z,25.88
2019-02-17T05:37:03.017Z,32.23
2019-02-17T05:39:31.805Z,29.65
2019-02-17T05:42:00.931Z,29.60
2019-02-17T05:44:30.044Z,28.40
2019-02-17T05:46:58.875Z,27.52
2019-02-17T05:49:27.918Z,27.30
2019-02-17T05:51:56.829Z,25.68
2019-02-17T05:54:25.687Z,31.62
2019-02-17T05:56:54.513Z,26.42
2019-02-17T05:59:23.305Z,28.32
2019-02-17T06:01:52.121Z,30.72
2019-02-17T06:04:21.232Z,27.27
2019-02-17T06:06:50.114Z,28.27
2019-02-17T06:09:19.219Z,38.92
2019-02-17T06:11:48.045Z,29.05
2019-02-17T06:14:16.829Z,26.20
2019-02-17T06:16:46.246Z,25.70
2019-02-17T06:19:17.607Z,32.50
2019-02-17T06:21:45.638Z,33.08
2019-02-17T06:24:14.429Z,28.52
2019-02-17T06:26:43.241Z,29.52
2019-02-17T06:31:48.209Z,28.95
2019-02-17T06:34:17.000Z,26.77
2019-02-17T06:36:45.814Z,31.17
2019-02-17T06:39:14.853Z,27.73
2019-02-17T06:41:44.157Z,28.92
2019-02-17T06:44:13.471Z,25.55
2019-02-17T06:46:47.053Z,29.35
2019-02-17T06:49:15.933Z,29.30
2019-02-17T06:51:44.975Z,23.67
2019-02-17T06:54:14.048Z,27.27
2019-02-17T06:56:50.911Z,30.20
2019-02-17T06:59:19.700Z,25.52
2019-02-17T07:01:48.736Z,26.73
2019-02-17T07:04:19.635Z,34.10
2019-02-17T07:06:53.934Z,28.87
2019-02-17T07:09:23.053Z,26.37
2019-02-17T07:11:51.866Z,28.40
2019-02-17T07:14:20.677Z,27.90
2019-02-17T07:16:50.018Z,30.40
2019-02-17T07:19:18.857Z,32.58
2019-02-17T07:21:47.654Z,27.40
2019-02-17T07:24:16.486Z,25.45
2019-02-17T07:26:45.269Z,28.87
2019-02-17T07:29:16.742Z,27.70
2019-02-17T07:31:45.378Z,28.55
2019-02-17T07:34:14.195Z,26.75
2019-02-17T07:36:43.263Z,28.87
2019-02-17T07:39:12.160Z,31.17
2019-02-17T07:41:40.966Z,33.95
2019-02-17T07:44:09.773Z,23.70
2019-02-17T07:46:38.890Z,23.67
2019-02-17T07:49:07.949Z,23.18
2019-02-17T07:51:37.084Z,21.70
2019-02-17T07:54:06.200Z,28.83
2019-02-17T07:56:35.246Z,29.92
2019-02-17T07:59:04.313Z,24.57
2019-02-17T08:01:33.613Z,26.85
2019-02-17T08:04:02.729Z,27.10
2019-02-17T08:06:31.607Z,27.73
2019-02-17T08:09:00.412Z,24.50
2019-02-17T08:11:29.282Z,26.82
2019-02-17T08:13:58.353Z,22.58
2019-02-17T08:16:27.150Z,20.92
2019-02-17T08:18:55.961Z,18.95
2019-02-17T08:21:24.754Z,20.48
2019-02-17T08:23:53.576Z,23.18
2019-02-17T08:26:22.639Z,25.75
2019-02-17T08:28:51.702Z,19.35
2019-02-17T08:31:20.833Z,19.70
2019-02-17T08:33:49.627Z,20.40
2019-02-17T08:36:19.586Z,25.05
2019-02-17T08:38:48.402Z,22.27
2019-02-17T08:41:17.527Z,27.95
2019-02-17T08:43:46.401Z,27.15
2019-02-17T08:46:15.732Z,23.00
2019-02-17T08:48:44.553Z,32.10
2019-02-17T08:51:13.501Z,25.52
2019-02-17T08:53:42.305Z,24.65
2019-02-17T08:56:11.117Z,25.08
2019-02-17T08:58:39.945Z,22.25
2019-02-17T09:01:08.819Z,22.32
2019-02-17T09:03:37.605Z,28.42
2019-02-17T09:06:06.413Z,27.15
2019-02-17T09:08:35.212Z,20.75
2019-02-17T09:11:04.477Z,25.70
2019-02-17T09:13:33.411Z,22.62
2019-02-17T09:16:02.327Z,21.57
2019-02-17T09:18:31.199Z,21.10
2019-02-17T09:21:00.142Z,20.47
2019-02-17T09:23:29.212Z,20.80
2019-02-17T09:25:58.026Z,21.33
2019-02-17T09:28:26.813Z,21.07
2019-02-17T09:30:55.863Z,18.90
2019-02-17T09:33:24.901Z,19.80
2019-02-17T09:35:53.705Z,18.40
2019-02-17T09:38:22.581Z,16.70
2019-02-17T09:40:51.400Z,18.03
2019-02-17T09:43:20.196Z,17.90
2019-02-17T09:45:48.998Z,19.37
2019-02-17T09:48:17.793Z,18.53
2019-02-17T09:50:47.149Z,21.73
2019-02-17T09:53:15.934Z,18.20
2019-02-17T09:55:45.001Z,16.70
2019-02-17T09:58:14.051Z,19.90
2019-02-17T10:00:44.189Z,21.53
2019-02-17T10:03:13.236Z,18.10
2019-02-17T10:05:42.020Z,16.57
2019-02-17T10:08:11.313Z,19.80
2019-02-17T10:10:41.699Z,20.07
2019-02-17T10:13:10.502Z,18.80
2019-02-17T10:15:39.289Z,19.43
2019-02-17T10:18:08.094Z,19.67
2019-02-17T10:20:37.128Z,21.77
2019-02-17T10:23:06.428Z,21.77
2019-02-17T10:25:35.219Z,19.10
2019-02-17T10:28:04.105Z,20.73
2019-02-17T10:30:33.292Z,19.73
2019-02-17T10:33:02.090Z,17.60
2019-02-17T10:35:30.886Z,21.60
2019-02-17T10:37:59.681Z,18.17
2019-02-17T10:40:28.490Z,20.73
2019-02-17T10:42:57.551Z,16.60
2019-02-17T10:45:26.497Z,20.47
2019-02-17T10:47:55.318Z,19.77
2019-02-17T10:50:24.121Z,20.30
2019-02-17T10:52:53.214Z,25.80
2019-02-17T10:55:22.037Z,21.93
2019-02-17T10:57:51.008Z,18.83
2019-02-17T11:00:20.001Z,21.90
2019-02-17T11:02:49.605Z,21.13
2019-02-17T11:05:18.489Z,22.00
2019-02-17T11:07:47.373Z,24.90
2019-02-17T11:10:16.266Z,17.87
2019-02-17T11:30:30.181Z,18.80
2019-02-17T11:32:59.019Z,23.27
2019-02-17T11:35:29.855Z,21.80
2019-02-17T11:37:58.910Z,20.13
2019-02-17T11:40:28.061Z,21.93
2019-02-17T11:42:57.005Z,25.03
2019-02-17T11:45:26.248Z,19.50
2019-02-17T11:47:55.074Z,17.57
2019-02-17T11:50:24.278Z,19.77
2019-02-17T11:52:53.084Z,18.13
2019-02-17T11:55:22.832Z,23.10
2019-02-17T11:57:52.103Z,17.83
2019-02-17T12:00:21.218Z,26.17
2019-02-17T12:02:50.137Z,21.03
2019-02-17T12:05:19.271Z,22.33
2019-02-17T12:07:48.337Z,20.53
2019-02-17T12:10:17.571Z,17.97
2019-02-17T12:12:46.662Z,19.97
2019-02-17T12:15:15.981Z,22.07
2019-02-17T12:17:45.450Z,18.00
2019-02-17T12:20:42.744Z,17.07
2019-02-17T12:23:24.977Z,18.60
2019-02-17T12:26:01.405Z,19.50
2019-02-17T12:28:34.850Z,20.20
2019-02-17T12:31:04.374Z,17.47
2019-02-17T12:33:33.442Z,21.70
2019-02-17T12:36:02.349Z,17.73
2019-02-17T12:38:31.414Z,20.90
2019-02-17T12:41:00.232Z,20.40
2019-02-17T12:43:29.386Z,18.47
2019-02-17T12:45:58.192Z,23.47
2019-02-17T12:48:27.017Z,21.73
2019-02-17T12:50:56.205Z,19.20
2019-02-17T12:53:25.526Z,21.50
2019-02-17T12:55:54.329Z,18.83
2019-02-17T12:58:29.601Z,19.30
2019-02-17T13:00:53.684Z,18.97
2019-02-17T13:03:28.446Z,18.53
2019-02-17T13:05:53.266Z,17.43
2019-02-17T13:08:22.373Z,19.97
2019-02-17T13:10:51.194Z,20.93
2019-02-17T13:13:20.008Z,18.73
2019-02-17T13:15:48.833Z,20.60
2019-02-17T13:18:18.131Z,17.17
2019-02-17T13:20:47.281Z,18.07
2019-02-17T13:23:16.091Z,16.73
2019-02-17T13:25:44.914Z,17.47
2019-02-17T13:28:13.713Z,16.97
2019-02-17T13:30:42.595Z,18.37
2019-02-17T13:33:23.435Z,14.53
2019-02-17T13:35:52.558Z,21.57
2019-02-17T13:38:21.522Z,18.40
2019-02-17T13:40:50.337Z,16.90
2019-02-17T13:43:19.650Z,14.67
2019-02-17T13:45:48.901Z,16.33
2019-02-17T13:48:17.954Z,16.60
2019-02-17T13:50:47.041Z,15.97
2019-02-17T13:53:15.941Z,16.47
2019-02-17T13:55:44.936Z,16.83
2019-02-17T13:58:13.974Z,22.23
2019-02-17T14:00:42.922Z,13.97
2019-02-17T14:03:12.394Z,17.60
2019-02-17T14:05:41.219Z,18.23
2019-02-17T14:08:10.159Z,12.80
2019-02-17T14:10:39.397Z,14.40
2019-02-17T14:13:08.575Z,21.73
2019-02-17T14:15:37.597Z,11.07
2019-02-17T14:18:08.078Z,10.40
2019-02-17T14:20:37.207Z,10.90
2019-02-17T14:23:06.406Z,9.57
2019-02-17T14:25:36.812Z,7.43
2019-02-17T14:28:05.774Z,8.27
2019-02-17T14:30:35.750Z,8.40
2019-02-17T14:33:04.737Z,6.27
2019-02-17T14:35:33.849Z,7.90
2019-02-17T14:38:03.150Z,8.83
2019-02-17T14:40:32.181Z,7.10
2019-02-17T14:43:00.987Z,8.23
2019-02-17T14:45:30.067Z,9.20
2019-02-17T14:47:58.885Z,6.77
2019-02-17T14:50:27.689Z,4.60
2019-02-17T14:52:56.719Z,6.00
2019-02-17T14:55:25.765Z,3.90
2019-02-17T14:58:04.710Z,4.30
2019-02-17T15:00:29.031Z,5.87
2019-02-17T15:02:58.068Z,5.27
2019-02-17T15:05:27.125Z,8.70
2019-02-17T15:07:55.921Z,3.63
2019-02-17T15:10:25.217Z,4.33
2019-02-17T15:12:54.009Z,4.90
2019-02-17T15:15:22.877Z,4.20
2019-02-17T15:17:51.676Z,4.40
2019-02-17T15:20:20.830Z,10.90
2019-02-17T15:22:49.616Z,10.20
2019-02-17T15:25:18.500Z,8.83
2019-02-17T15:27:47.293Z,14.60
2019-02-17T15:30:18.025Z,13.33
2019-02-17T15:32:47.016Z,13.93
2019-02-17T15:35:15.999Z,19.40
2019-02-17T15:37:46.660Z,12.37
2019-02-17T15:40:15.865Z,11.87
2019-02-17T15:42:44.681Z,17.10
2019-02-17T15:45:13.745Z,10.17
2019-02-17T15:47:42.936Z,12.33
2019-02-17T15:50:11.905Z,6.57
2019-02-17T15:52:40.973Z,4.60
2019-02-17T15:55:09.917Z,5.63
2019-02-17T15:57:38.965Z,12.53
2019-02-17T16:00:10.422Z,10.73
2019-02-17T16:02:39.200Z,6.50
2019-02-17T16:05:08.859Z,4.60
2019-02-17T16:07:37.881Z,4.90
2019-02-17T16:10:07.825Z,5.20
2019-02-17T16:12:36.685Z,6.23
2019-02-17T16:15:07.467Z,4.87
2019-02-17T16:17:36.256Z,5.00
2019-02-17T16:20:06.295Z,4.40
2019-02-17T16:22:35.368Z,6.57
2019-02-17T16:25:04.645Z,7.50
2019-02-17T16:27:33.461Z,5.20
2019-02-17T16:30:02.630Z,4.33
2019-02-17T16:32:31.753Z,6.70
2019-02-17T16:35:00.570Z,8.37
2019-02-17T16:37:29.774Z,7.10
2019-02-17T16:40:03.205Z,4.90
2019-02-17T16:42:32.225Z,7.37
2019-02-17T16:45:02.433Z,10.77
2019-02-17T16:47:31.234Z,8.60
2019-02-17T16:50:00.786Z,4.97
2019-02-17T16:52:29.601Z,7.17
2019-02-17T16:54:58.445Z,5.60
2019-02-17T16:57:27.289Z,6.23
2019-02-17T16:59:56.161Z,7.57
2019-02-17T17:02:28.414Z,7.80
2019-02-17T17:04:57.703Z,7.43
2019-02-17T17:07:26.500Z,10.13
2019-02-17T17:09:55.641Z,55.30
2019-02-17T17:12:25.009Z,26.47
2019-02-17T17:14:53.877Z,20.00
2019-02-17T17:17:22.705Z,14.40
2019-02-17T17:19:51.567Z,14.23
2019-02-17T17:22:21.644Z,13.83
2019-02-17T17:24:50.906Z,11.53
2019-02-17T17:27:19.774Z,7.67
2019-02-17T17:29:48.805Z,13.70
2019-02-17T17:32:18.195Z,9.40
2019-02-17T17:34:47.249Z,13.60
2019-02-17T17:37:16.069Z,10.13
2019-02-17T17:39:45.284Z,10.30
2019-02-17T17:42:14.088Z,10.10
2019-02-17T17:44:42.954Z,6.37
2019-02-17T17:47:14.517Z,20.87
2019-02-17T17:49:43.300Z,10.53
2019-02-17T17:52:14.950Z,10.17
2019-02-17T17:54:45.376Z,7.00
2019-02-17T17:57:14.688Z,9.73
2019-02-17T17:59:46.917Z,7.63
2019-02-17T18:02:15.796Z,9.10
2019-02-17T18:04:44.582Z,7.80
2019-02-17T18:07:13.398Z,9.23
2019-02-17T18:09:42.197Z,12.53
2019-02-17T18:12:11.258Z,8.53
2019-02-17T18:14:43.266Z,13.47
2019-02-17T18:17:12.348Z,10.27
2019-02-17T18:19:41.177Z,11.10
2019-02-17T18:22:09.978Z,12.80
2019-02-17T18:24:39.025Z,19.10
2019-02-17T18:27:07.825Z,20.97
2019-02-17T18:29:36.619Z,22.70
2019-02-17T18:32:05.588Z,22.45
2019-02-17T18:34:34.402Z,24.98
2019-02-17T18:37:03.509Z,17.70
2019-02-17T18:39:32.389Z,20.32
2019-02-17T18:42:01.689Z,17.60
2019-02-17T18:44:30.499Z,19.35
2019-02-17T18:46:59.785Z,17.10
2019-02-17T18:49:28.590Z,14.63
2019-02-17T18:51:57.930Z,15.60
2019-02-17T18:54:26.822Z,14.18
2019-02-17T18:56:55.885Z,14.70
2019-02-17T18:59:25.007Z,16.85
2019-02-17T19:01:53.873Z,39.48
2019-02-17T19:04:23.194Z,17.85
2019-02-17T19:06:52.014Z,18.98
2019-02-17T19:09:21.090Z,31.33
2019-02-17T19:11:49.960Z,22.10
2019-02-17T19:14:19.025Z,18.87
2019-02-17T19:16:47.817Z,20.17
2019-02-17T19:19:16.665Z,18.87
2019-02-17T19:21:45.449Z,18.45
2019-02-17T19:24:14.492Z,18.30
2019-02-17T19:26:43.336Z,15.75
2019-02-17T19:29:12.408Z,19.73
2019-02-17T19:31:41.253Z,20.43
2019-02-17T19:34:10.133Z,20.90
2019-02-17T19:36:39.188Z,19.02
2019-02-17T19:39:08.321Z,19.32
2019-02-17T19:41:37.387Z,20.92
2019-02-17T19:44:06.194Z,15.98
2019-02-17T19:46:34.989Z,18.17
2019-02-17T19:49:04.018Z,17.92
2019-02-17T19:51:35.485Z,15.58
2019-02-17T19:54:04.355Z,20.37
2019-02-17T19:56:33.489Z,15.95
2019-02-17T19:59:02.282Z,16.20
2019-02-17T20:01:31.297Z,17.82
2019-02-17T20:04:19.136Z,16.65
2019-02-17T20:06:48.189Z,13.98
2019-02-17T20:09:19.009Z,17.67
2019-02-17T20:11:48.089Z,21.23
2019-02-17T20:14:17.024Z,19.23
2019-02-17T20:16:46.436Z,18.87
2019-02-17T20:19:15.621Z,20.30
2019-02-17T20:21:44.406Z,17.05
2019-02-17T20:24:13.209Z,23.90
2019-02-17T20:26:41.993Z,16.82
2019-02-17T20:29:11.939Z,19.30
2019-02-17T20:31:40.958Z,16.73
2019-02-17T20:34:09.761Z,26.55
2019-02-17T20:36:38.809Z,17.85
2019-02-17T20:39:08.559Z,20.17
2019-02-17T20:41:37.661Z,19.52
2019-02-17T20:44:06.463Z,19.77
2019-02-17T20:46:35.516Z,23.75
2019-02-17T20:49:04.399Z,21.35
2019-02-17T20:51:33.177Z,17.48
2019-02-17T20:54:01.973Z,20.97
2019-02-17T20:56:30.753Z,22.48
2019-02-17T20:58:59.545Z,16.60
2019-02-17T21:01:28.388Z,17.80
2019-02-17T21:03:57.509Z,21.37
2019-02-17T21:06:26.533Z,15.83
2019-02-17T21:08:55.329Z,16.95
2019-02-17T21:11:24.462Z,20.20
2019-02-17T21:13:53.245Z,21.20
2019-02-17T21:16:22.053Z,16.73
2019-02-17T21:18:50.833Z,19.80
2019-02-17T21:21:19.954Z,16.15
2019-02-17T21:23:48.746Z,25.88
2019-02-17T21:26:18.115Z,17.40
2019-02-17T21:28:46.921Z,16.97
2019-02-17T21:31:16.030Z,20.35
2019-02-17T21:33:45.065Z,45.58
2019-02-17T21:36:22.832Z,26.52
2019-02-17T21:38:44.385Z,26.55
2019-02-17T21:41:13.218Z,32.78
2019-02-17T21:43:42.272Z,35.75
2019-02-17T21:46:11.278Z,38.73
2019-02-17T21:48:40.137Z,43.65
2019-02-17T21:51:09.282Z,42.30
2019-02-17T21:53:38.145Z,33.95
2019-02-17T21:56:06.941Z,32.05
2019-02-17T21:58:35.724Z,33.63
2019-02-17T22:01:04.935Z,37.63
2019-02-17T22:03:33.728Z,33.38
2019-02-17T22:06:02.840Z,37.15
2019-02-17T22:08:31.628Z,44.25
2019-02-17T22:11:00.931Z,40.45
2019-02-17T22:13:29.722Z,35.68
2019-02-17T22:15:58.593Z,36.88
2019-02-17T22:18:29.631Z,44.42
2019-02-17T22:20:58.138Z,43.80
2019-02-17T22:23:26.930Z,40.10
2019-02-17T22:25:55.715Z,33.05
2019-02-17T22:28:24.493Z,36.53
2019-02-17T22:30:53.369Z,33.53
2019-02-17T22:33:22.150Z,29.15
2019-02-17T22:35:50.961Z,31.48
2019-02-17T22:38:19.814Z,23.35
2019-02-17T22:40:48.609Z,26.65
2019-02-17T22:43:17.404Z,29.00
2019-02-17T22:45:46.213Z,23.83
2019-02-17T22:48:14.996Z,22.30
2019-02-17T22:50:43.810Z,23.02
2019-02-17T22:53:12.849Z,20.25
2019-02-17T22:55:41.635Z,21.55
2019-02-17T22:58:10.449Z,24.75
2019-02-17T23:00:58.359Z,25.35
2019-02-17T23:03:29.019Z,22.02
2019-02-17T23:05:57.809Z,19.52
2019-02-17T23:08:26.834Z,19.23
2019-02-17T23:10:55.725Z,18.25
2019-02-17T23:13:24.504Z,18.85
2019-02-17T23:15:53.348Z,20.77
2019-02-17T23:18:22.131Z,19.60
2019-02-17T23:20:51.162Z,16.37
2019-02-17T23:23:20.214Z,19.10
2019-02-17T23:25:49.004Z,13.20
2019-02-17T23:28:17.800Z,13.58
2019-02-17T23:30:46.672Z,16.30
2019-02-17T23:33:15.460Z,13.78
2019-02-17T23:35:44.753Z,18.00
2019-02-17T23:38:13.546Z,15.98
2019-02-17T23:40:42.605Z,15.70
2019-02-17T23:43:11.893Z,14.73
2019-02-17T23:45:40.910Z,15.88
2019-02-17T23:48:09.710Z,20.90
2019-02-17T23:50:38.747Z,18.95
2019-02-17T23:53:07.612Z,16.07
2019-02-17T23:55:36.652Z,14.93
2019-02-17T23:58:05.834Z,15.20
